createdAt,value
2023-02-09T00:01:24.447Z,100.00
2023-02-09T00:03:51.714Z,100.00
2023-02-09T00:06:21.777Z,100.00
2023-02-09T00:08:48.521Z,100.00
2023-02-09T00:11:45.648Z,100.00
2023-02-09T00:14:13.882Z,100.00
2023-02-09T00:16:40.986Z,100.00
2023-02-09T00:19:07.785Z,100.00
2023-02-09T00:21:34.261Z,100.00
2023-02-09T00:24:00.801Z,100.00
2023-02-09T00:26:27.691Z,100.00
2023-02-09T00:28:54.229Z,100.00
2023-02-09T00:31:20.814Z,100.00
2023-02-09T00:33:47.516Z,100.00
2023-02-09T00:36:14.543Z,100.00
2023-02-09T00:38:41.604Z,100.00
2023-02-09T00:41:08.356Z,100.00
2023-02-09T00:43:35.161Z,100.00
2023-02-09T00:46:02.427Z,100.00
2023-02-09T00:48:29.731Z,100.00
2023-02-09T00:50:56.259Z,100.00
2023-02-09T00:53:23.706Z,100.00
2023-02-09T00:55:51.388Z,100.00
2023-02-09T00:58:18.560Z,100.00
2023-02-09T01:00:45.623Z,100.00
2023-02-09T01:03:12.384Z,100.00
2023-02-09T01:05:40.370Z,100.00
2023-02-09T01:08:07.237Z,100.00
2023-02-09T01:10:33.788Z,100.00
2023-02-09T01:13:00.272Z,100.00
2023-02-09T01:15:26.844Z,100.00
2023-02-09T01:17:53.255Z,100.00
2023-02-09T01:20:19.791Z,100.00
2023-02-09T01:22:46.242Z,100.00
2023-02-09T01:25:12.719Z,100.00
2023-02-09T01:27:39.197Z,100.00
2023-02-09T01:30:06.130Z,100.00
2023-02-09T01:32:32.650Z,100.00
2023-02-09T01:34:59.129Z,100.00
2023-02-09T01:37:25.619Z,100.00
2023-02-09T01:39:52.111Z,100.00
2023-02-09T01:42:20.701Z,100.00
2023-02-09T01:44:47.084Z,100.00
2023-02-09T01:47:15.655Z,100.00
2023-02-09T01:49:44.208Z,100.00
2023-02-09T01:52:15.500Z,100.00
2023-02-09T01:54:45.901Z,100.00
2023-02-09T01:57:17.118Z,100.00
2023-02-09T01:59:46.824Z,100.00
2023-02-09T02:02:14.701Z,100.00
2023-02-09T02:04:44.660Z,100.00
2023-02-09T02:07:25.205Z,100.00
2023-02-09T02:09:52.309Z,100.00
2023-02-09T02:12:19.084Z,100.00
2023-02-09T02:14:45.714Z,100.00
2023-02-09T02:17:24.148Z,100.00
2023-02-09T02:20:18.688Z,100.00
2023-02-09T02:23:06.586Z,100.00
2023-02-09T02:25:39.045Z,100.00
2023-02-09T02:28:14.640Z,100.00
2023-02-09T02:31:16.632Z,100.00
2023-02-09T02:34:00.550Z,100.00
2023-02-09T02:36:31.562Z,100.00
2023-02-09T02:39:16.370Z,100.00
2023-02-09T02:42:20.075Z,100.00
2023-02-09T02:44:59.265Z,100.00
2023-02-09T02:47:28.672Z,100.00
2023-02-09T02:50:00.444Z,100.00
2023-02-09T02:52:26.947Z,100.00
2023-02-09T02:55:02.529Z,100.00
2023-02-09T02:57:33.281Z,100.00
2023-02-09T03:00:26.245Z,100.00
2023-02-09T03:02:55.644Z,100.00
2023-02-09T03:05:24.811Z,100.00
2023-02-09T03:07:51.697Z,100.00
2023-02-09T03:10:34.940Z,100.00
2023-02-09T03:13:04.408Z,100.00
2023-02-09T03:19:34.762Z,100.00
2023-02-09T03:22:29.028Z,100.00
2023-02-09T03:25:06.299Z,100.00
2023-02-09T03:27:41.431Z,100.00
2023-02-09T03:30:11.453Z,100.00
2023-02-09T03:32:40.289Z,100.00
2023-02-09T03:35:08.396Z,100.00
2023-02-09T03:37:34.870Z,100.00
2023-02-09T03:40:02.048Z,100.00
2023-02-09T03:42:28.522Z,100.00
2023-02-09T03:44:54.960Z,100.00
2023-02-09T03:47:21.485Z,100.00
2023-02-09T03:49:47.918Z,100.00
2023-02-09T03:52:16.360Z,100.00
2023-02-09T03:54:42.989Z,100.00
2023-02-09T03:57:10.349Z,100.00
2023-02-09T03:59:37.778Z,100.00
2023-02-09T04:02:07.259Z,100.00
2023-02-09T04:04:34.253Z,100.00
2023-02-09T04:07:00.838Z,100.00
2023-02-09T04:09:28.024Z,100.00
2023-02-09T04:11:55.839Z,100.00
2023-02-09T04:14:22.659Z,100.00
2023-02-09T04:16:49.214Z,100.00
2023-02-09T04:19:16.536Z,100.00
2023-02-09T04:21:43.348Z,100.00
2023-02-09T04:24:10.532Z,100.00
2023-02-09T04:26:37.128Z,100.00
2023-02-09T04:29:04.713Z,100.00
2023-02-09T04:31:31.791Z,100.00
2023-02-09T04:33:58.439Z,100.00
2023-02-09T04:36:24.950Z,100.00
2023-02-09T04:38:51.484Z,100.00
2023-02-09T04:41:18.230Z,100.00
2023-02-09T04:43:46.368Z,100.00
2023-02-09T04:46:14.918Z,100.00
2023-02-09T04:48:41.735Z,100.00
2023-02-09T04:51:08.377Z,100.00
2023-02-09T04:53:34.916Z,100.00
2023-02-09T04:56:01.565Z,100.00
2023-02-09T04:58:46.432Z,100.00
2023-02-09T05:01:19.082Z,100.00
2023-02-09T05:03:45.705Z,100.00
2023-02-09T05:06:12.208Z,100.00
2023-02-09T05:08:38.747Z,100.00
2023-02-09T05:11:05.522Z,100.00
2023-02-09T05:13:32.018Z,100.00
2023-02-09T05:15:58.496Z,100.00
2023-02-09T05:18:25.689Z,100.00
2023-02-09T05:20:52.566Z,100.00
2023-02-09T05:23:19.235Z,100.00
2023-02-09T05:25:46.155Z,100.00
2023-02-09T05:28:12.938Z,100.00
2023-02-09T05:30:39.657Z,100.00
2023-02-09T05:33:06.240Z,100.00
2023-02-09T05:35:32.845Z,100.00
2023-02-09T05:37:59.303Z,100.00
2023-02-09T05:40:25.768Z,100.00
2023-02-09T05:42:52.287Z,100.00
2023-02-09T05:45:18.935Z,100.00
2023-02-09T05:47:46.586Z,100.00
2023-02-09T05:50:13.098Z,100.00
2023-02-09T05:52:39.559Z,100.00
2023-02-09T05:55:06.383Z,100.00
2023-02-09T05:57:32.843Z,100.00
2023-02-09T05:59:59.286Z,100.00
2023-02-09T06:02:25.875Z,100.00
2023-02-09T06:04:52.343Z,100.00
2023-02-09T06:07:18.796Z,100.00
2023-02-09T06:09:45.254Z,100.00
2023-02-09T06:12:11.768Z,100.00
2023-02-09T06:14:38.242Z,100.00
2023-02-09T06:17:04.752Z,100.00
2023-02-09T06:19:31.257Z,100.00
2023-02-09T06:21:57.745Z,100.00
2023-02-09T06:24:24.264Z,100.00
2023-02-09T06:26:50.747Z,100.00
2023-02-09T06:29:17.210Z,100.00
2023-02-09T06:31:43.808Z,100.00
2023-02-09T06:34:10.483Z,100.00
2023-02-09T06:36:37.008Z,100.00
2023-02-09T06:39:08.026Z,100.00
2023-02-09T06:41:34.502Z,100.00
2023-02-09T06:44:01.023Z,100.00
2023-02-09T06:46:28.641Z,100.00
2023-02-09T06:48:55.396Z,100.00
2023-02-09T06:51:22.268Z,100.00
2023-02-09T06:53:49.145Z,100.00
2023-02-09T06:56:16.076Z,100.00
2023-02-09T06:58:42.603Z,100.00
2023-02-09T07:01:12.071Z,100.00
2023-02-09T07:03:38.834Z,100.00
2023-02-09T07:06:08.616Z,100.00
2023-02-09T07:08:36.134Z,100.00
2023-02-09T07:11:08.191Z,100.00
2023-02-09T07:13:34.988Z,100.00
2023-02-09T07:16:02.724Z,100.00
2023-02-09T07:18:29.277Z,100.00
2023-02-09T07:21:01.401Z,100.00
2023-02-09T07:23:28.336Z,100.00
2023-02-09T07:25:54.890Z,100.00
2023-02-09T07:28:22.116Z,100.00
2023-02-09T07:30:50.205Z,100.00
2023-02-09T07:33:17.033Z,100.00
2023-02-09T07:35:43.516Z,100.00
2023-02-09T07:38:10.334Z,100.00
2023-02-09T07:40:38.577Z,100.00
2023-02-09T07:43:06.587Z,100.00
2023-02-09T07:45:33.734Z,100.00
2023-02-09T07:48:00.372Z,100.00
2023-02-09T07:50:27.195Z,100.00
2023-02-09T07:52:54.916Z,100.00
2023-02-09T07:55:21.730Z,100.00
2023-02-09T07:57:48.189Z,100.00
2023-02-09T08:00:15.445Z,100.00
2023-02-09T08:02:43.395Z,100.00
2023-02-09T08:05:21.361Z,100.00
2023-02-09T08:07:48.251Z,100.00
2023-02-09T08:10:17.103Z,100.00
2023-02-09T08:13:02.608Z,100.00
2023-02-09T08:15:31.810Z,100.00
2023-02-09T08:18:02.339Z,100.00
2023-02-09T08:20:31.041Z,100.00
2023-02-09T08:23:05.647Z,100.00
2023-02-09T08:25:32.851Z,100.00
2023-02-09T08:28:01.213Z,100.00
2023-02-09T08:30:27.714Z,100.00
2023-02-09T08:32:54.332Z,100.00
2023-02-09T08:35:20.843Z,100.00
2023-02-09T08:37:47.417Z,100.00
2023-02-09T08:40:15.210Z,100.00
2023-02-09T08:42:41.833Z,100.00
2023-02-09T08:45:08.952Z,100.00
2023-02-09T08:47:35.480Z,100.00
2023-02-09T08:50:02.132Z,100.00
2023-02-09T08:52:28.706Z,100.00
2023-02-09T08:54:55.179Z,100.00
2023-02-09T08:57:23.116Z,100.00
2023-02-09T08:59:50.699Z,100.00
2023-02-09T09:02:17.476Z,100.00
2023-02-09T09:04:44.086Z,100.00
2023-02-09T09:07:10.521Z,100.00
2023-02-09T09:09:36.948Z,100.00
2023-02-09T09:12:03.588Z,100.00
2023-02-09T09:14:31.451Z,100.00
2023-02-09T09:16:58.640Z,100.00
2023-02-09T09:19:26.294Z,100.00
2023-02-09T09:21:52.848Z,100.00
2023-02-09T09:24:19.898Z,100.00
2023-02-09T09:26:46.402Z,100.00
2023-02-09T09:29:13.063Z,100.00
2023-02-09T09:31:39.587Z,100.00
2023-02-09T09:34:06.179Z,99.85
2023-02-09T09:36:32.703Z,97.85
2023-02-09T09:38:59.181Z,98.10
2023-02-09T09:41:31.602Z,97.16
2023-02-09T09:43:59.395Z,96.02
2023-02-09T09:46:36.552Z,94.10
2023-02-09T09:49:04.642Z,91.88
2023-02-09T09:51:33.901Z,91.15
2023-02-09T09:54:03.043Z,88.48
2023-02-09T09:56:31.343Z,88.00
2023-02-09T09:58:59.499Z,88.18
2023-02-09T10:01:28.691Z,87.63
2023-02-09T10:04:00.911Z,87.63
2023-02-09T10:06:30.539Z,86.78
2023-02-09T10:09:07.963Z,84.63
2023-02-09T10:11:51.819Z,79.55
2023-02-09T10:14:18.472Z,78.27
2023-02-09T10:16:45.087Z,73.08
2023-02-09T10:19:27.372Z,72.69
2023-02-09T10:21:54.792Z,68.86
2023-02-09T10:24:34.483Z,69.85
2023-02-09T10:27:17.452Z,70.54
2023-02-09T10:29:44.017Z,68.48
2023-02-09T10:32:15.185Z,69.55
2023-02-09T10:34:45.205Z,68.87
2023-02-09T10:37:15.431Z,65.00
2023-02-09T10:39:42.391Z,65.03
2023-02-09T10:42:18.045Z,63.93
2023-02-09T10:44:49.578Z,64.66
2023-02-09T10:47:19.102Z,61.91
2023-02-09T10:50:10.651Z,60.57
2023-02-09T10:52:40.775Z,61.00
2023-02-09T10:55:35.069Z,62.18
2023-02-09T10:58:11.814Z,60.97
2023-02-09T11:00:41.264Z,60.15
2023-02-09T11:03:21.450Z,58.70
2023-02-09T11:06:17.202Z,57.70
2023-02-09T11:08:48.692Z,57.39
2023-02-09T11:11:30.524Z,57.20
2023-02-09T11:13:57.584Z,56.61
2023-02-09T11:16:55.554Z,57.63
2023-02-09T11:19:40.074Z,54.23
2023-02-09T11:22:11.889Z,53.96
2023-02-09T11:24:58.677Z,52.40
2023-02-09T11:27:27.995Z,52.22
2023-02-09T11:30:19.348Z,50.95
2023-02-09T11:32:49.069Z,50.71
2023-02-09T11:35:20.051Z,49.21
2023-02-09T11:37:56.099Z,49.45
2023-02-09T11:40:41.394Z,48.81
2023-02-09T11:43:18.817Z,47.69
2023-02-09T11:45:47.055Z,47.27
2023-02-09T11:48:32.016Z,46.69
2023-02-09T11:51:09.819Z,46.51
2023-02-09T11:54:00.658Z,45.31
2023-02-09T11:56:28.738Z,45.24
2023-02-09T11:59:03.810Z,46.19
2023-02-09T12:02:04.445Z,44.58
2023-02-09T12:04:59.091Z,44.45
2023-02-09T12:07:41.979Z,43.30
2023-02-09T12:10:28.760Z,43.55
2023-02-09T12:13:19.740Z,42.52
2023-02-09T12:16:00.589Z,42.95
2023-02-09T12:18:30.523Z,42.17
2023-02-09T12:20:59.854Z,40.97
2023-02-09T12:23:31.656Z,41.67
2023-02-09T12:26:16.468Z,42.09
2023-02-09T12:28:44.141Z,42.03
2023-02-09T12:31:23.404Z,41.42
2023-02-09T12:34:02.547Z,41.37
2023-02-09T12:36:34.190Z,41.92
2023-02-09T12:39:05.546Z,42.48
2023-02-09T12:41:35.032Z,42.25
2023-02-09T12:44:10.674Z,41.69
2023-02-09T12:46:46.808Z,40.79
2023-02-09T12:49:17.690Z,41.03
2023-02-09T12:51:55.426Z,40.99
2023-02-09T12:54:51.541Z,41.62
2023-02-09T12:57:18.797Z,41.93
2023-02-09T12:59:59.075Z,41.77
2023-02-09T13:02:52.967Z,42.97
2023-02-09T13:05:33.688Z,42.41
2023-02-09T13:08:21.876Z,43.44
2023-02-09T13:10:51.020Z,43.16
2023-02-09T13:13:35.615Z,42.23
2023-02-09T13:16:04.933Z,42.60
2023-02-09T13:18:34.192Z,41.88
2023-02-09T13:21:22.596Z,42.48
2023-02-09T13:24:09.240Z,42.78
2023-02-09T13:26:46.852Z,42.15
2023-02-09T13:29:21.335Z,41.66
2023-02-09T13:31:50.043Z,41.64
2023-02-09T13:34:42.703Z,42.21
2023-02-09T13:37:21.275Z,43.27
2023-02-09T13:39:55.945Z,44.17
2023-02-09T13:42:25.040Z,43.24
2023-02-09T13:44:57.129Z,43.35
2023-02-09T13:47:25.119Z,42.59
2023-02-09T13:50:02.208Z,42.41
2023-02-09T13:52:38.970Z,42.35
2023-02-09T13:55:32.082Z,42.86
2023-02-09T13:58:03.275Z,42.87
2023-02-09T14:00:42.471Z,42.92
2023-02-09T14:03:21.870Z,42.04
2023-02-09T14:05:51.169Z,41.97
2023-02-09T14:08:20.075Z,42.70
2023-02-09T14:10:55.311Z,43.23
2023-02-09T14:13:21.936Z,44.22
2023-02-09T14:16:09.649Z,45.15
2023-02-09T14:18:43.140Z,45.69
2023-02-09T14:21:15.444Z,46.82
2023-02-09T14:23:47.810Z,46.76
2023-02-09T14:26:14.225Z,47.67
2023-02-09T14:28:49.107Z,48.50
2023-02-09T14:31:21.567Z,48.85
2023-02-09T14:33:50.333Z,50.03
2023-02-09T14:36:29.156Z,50.60
2023-02-09T14:39:21.002Z,50.73
2023-02-09T14:41:57.250Z,51.62
2023-02-09T14:44:24.306Z,51.99
2023-02-09T14:46:53.618Z,51.63
2023-02-09T14:49:21.561Z,52.78
2023-02-09T14:51:50.316Z,52.86
2023-02-09T14:54:26.273Z,53.07
2023-02-09T14:56:54.779Z,53.11
2023-02-09T14:59:22.129Z,54.06
2023-02-09T15:01:51.411Z,54.58
2023-02-09T15:04:18.325Z,54.45
2023-02-09T15:06:53.927Z,54.17
2023-02-09T15:09:36.798Z,54.63
2023-02-09T15:12:05.802Z,54.99
2023-02-09T15:14:42.582Z,55.48
2023-02-09T15:17:17.398Z,55.31
2023-02-09T15:19:44.858Z,56.09
2023-02-09T15:22:16.017Z,56.16
2023-02-09T15:24:44.567Z,56.91
2023-02-09T15:27:34.876Z,57.44
2023-02-09T15:30:04.578Z,58.41
2023-02-09T15:32:31.571Z,59.19
2023-02-09T15:34:58.087Z,60.13
2023-02-09T15:37:28.428Z,62.44
2023-02-09T15:39:59.525Z,62.23
2023-02-09T15:42:44.622Z,62.31
2023-02-09T15:45:41.069Z,63.41
2023-02-09T15:48:08.957Z,63.83
2023-02-09T15:50:38.849Z,64.06
2023-02-09T15:53:14.702Z,65.03
2023-02-09T15:55:42.780Z,65.49
2023-02-09T15:58:15.051Z,65.55
2023-02-09T16:00:41.815Z,66.40
2023-02-09T16:03:19.967Z,67.30
2023-02-09T16:05:49.755Z,67.98
2023-02-09T16:08:28.190Z,68.46
2023-02-09T16:10:54.717Z,69.33
2023-02-09T16:13:21.353Z,69.79
2023-02-09T16:15:49.077Z,70.29
2023-02-09T16:18:15.737Z,71.26
2023-02-09T16:20:49.755Z,71.32
2023-02-09T16:23:21.324Z,72.11
2023-02-09T16:25:50.417Z,72.60
2023-02-09T16:28:17.845Z,74.48
2023-02-09T16:30:56.688Z,75.54
2023-02-09T16:33:25.228Z,76.00
2023-02-09T16:35:57.228Z,76.26
2023-02-09T16:38:25.560Z,76.35
2023-02-09T16:40:54.471Z,77.96
2023-02-09T16:43:22.219Z,78.06
2023-02-09T16:46:02.400Z,78.80
2023-02-09T16:48:32.543Z,78.45
2023-02-09T16:50:59.279Z,79.12
2023-02-09T16:53:27.042Z,79.03
2023-02-09T16:55:53.739Z,79.75
2023-02-09T16:58:20.332Z,80.71
2023-02-09T17:00:46.889Z,80.55
2023-02-09T17:03:30.253Z,80.75
2023-02-09T17:05:57.804Z,81.91
2023-02-09T17:08:27.726Z,81.40
2023-02-09T17:10:56.098Z,82.26
2023-02-09T17:13:23.073Z,83.09
2023-02-09T17:15:54.944Z,81.74
2023-02-09T17:18:40.798Z,83.69
2023-02-09T17:21:12.297Z,82.22
2023-02-09T17:23:38.739Z,83.27
2023-02-09T17:26:05.289Z,84.03
2023-02-09T17:28:31.789Z,84.30
2023-02-09T17:31:01.682Z,84.39
2023-02-09T17:33:31.973Z,85.53
2023-02-09T17:38:46.768Z,85.52
2023-02-09T17:41:22.461Z,85.86
2023-02-09T17:43:52.425Z,86.05
2023-02-09T17:46:19.640Z,86.39
2023-02-09T17:48:47.549Z,86.46
2023-02-09T17:51:23.334Z,85.96
2023-02-09T17:53:50.028Z,86.94
2023-02-09T17:56:16.845Z,86.41
2023-02-09T17:58:44.461Z,86.96
2023-02-09T18:01:41.435Z,87.80
2023-02-09T18:04:16.793Z,87.38
2023-02-09T18:06:43.503Z,88.30
2023-02-09T18:09:12.453Z,88.07
2023-02-09T18:11:46.458Z,89.46
2023-02-09T18:14:14.347Z,87.53
2023-02-09T18:16:42.519Z,87.58
2023-02-09T18:19:10.446Z,87.09
2023-02-09T18:21:39.269Z,88.02
2023-02-09T18:24:06.377Z,87.57
2023-02-09T18:26:33.901Z,87.94
2023-02-09T18:29:00.372Z,88.24
2023-02-09T18:31:26.870Z,88.86
2023-02-09T18:33:54.110Z,88.93
2023-02-09T18:36:20.720Z,88.88
2023-02-09T18:38:48.431Z,89.17
2023-02-09T18:41:14.980Z,89.40
2023-02-09T18:43:41.441Z,89.61
2023-02-09T18:46:08.013Z,89.71
2023-02-09T18:48:34.661Z,89.72
2023-02-09T18:51:01.134Z,90.55
2023-02-09T18:53:27.693Z,90.94
2023-02-09T18:55:54.143Z,91.54
2023-02-09T18:58:20.647Z,91.87
2023-02-09T19:00:47.139Z,92.32
2023-02-09T19:03:13.958Z,92.82
2023-02-09T19:05:40.873Z,92.78
2023-02-09T19:08:07.445Z,93.59
2023-02-09T19:10:35.991Z,94.16
2023-02-09T19:13:03.883Z,94.47
2023-02-09T19:15:32.770Z,94.95
2023-02-09T19:18:00.159Z,96.42
2023-02-09T19:20:29.052Z,96.74
2023-02-09T19:22:56.413Z,98.63
2023-02-09T19:25:25.548Z,99.23
2023-02-09T19:27:52.745Z,100.00
2023-02-09T19:30:24.838Z,100.00
2023-02-09T19:32:55.601Z,100.00
2023-02-09T19:35:22.845Z,100.00
2023-02-09T19:37:53.818Z,100.00
2023-02-09T19:40:27.528Z,100.00
2023-02-09T19:42:55.399Z,100.00
2023-02-09T19:45:22.239Z,100.00
2023-02-09T19:47:48.784Z,100.00
2023-02-09T19:50:16.054Z,100.00
2023-02-09T19:52:45.712Z,100.00
2023-02-09T19:55:12.836Z,100.00
2023-02-09T19:57:39.353Z,100.00
2023-02-09T20:00:06.618Z,100.00
2023-02-09T20:02:33.099Z,100.00
2023-02-09T20:04:59.546Z,100.00
2023-02-09T20:07:26.090Z,100.00
2023-02-09T20:09:52.924Z,100.00
2023-02-09T20:12:21.618Z,100.00
2023-02-09T20:14:48.553Z,100.00
2023-02-09T20:17:15.028Z,100.00
2023-02-09T20:19:41.573Z,100.00
2023-02-09T20:22:07.978Z,100.00
2023-02-09T20:24:34.533Z,100.00
2023-02-09T20:27:01.065Z,100.00
2023-02-09T20:29:27.572Z,100.00
2023-02-09T20:31:54.172Z,100.00
2023-02-09T20:34:20.753Z,100.00
2023-02-09T20:36:51.180Z,100.00
2023-02-09T20:39:17.870Z,100.00
2023-02-09T20:42:07.228Z,100.00
2023-02-09T20:44:53.059Z,100.00
2023-02-09T20:47:19.674Z,100.00
2023-02-09T20:49:46.345Z,100.00
2023-02-09T20:52:13.066Z,100.00
2023-02-09T20:54:39.696Z,100.00
2023-02-09T20:57:06.253Z,100.00
2023-02-09T20:59:34.026Z,100.00
2023-02-09T21:02:01.057Z,100.00
2023-02-09T21:04:29.930Z,100.00
2023-02-09T21:06:57.692Z,100.00
2023-02-09T21:09:26.518Z,100.00
2023-02-09T21:11:53.966Z,100.00
2023-02-09T21:14:32.335Z,100.00
2023-02-09T21:17:05.715Z,100.00
2023-02-09T21:19:34.043Z,100.00
2023-02-09T21:22:00.721Z,100.00
2023-02-09T21:24:27.229Z,100.00
2023-02-09T21:26:53.774Z,100.00
2023-02-09T21:29:20.270Z,100.00
2023-02-09T21:31:46.757Z,100.00
2023-02-09T21:34:16.667Z,100.00
2023-02-09T21:36:43.573Z,100.00
2023-02-09T21:39:10.146Z,100.00
2023-02-09T21:41:55.357Z,100.00
2023-02-09T21:44:21.896Z,100.00
2023-02-09T21:46:49.525Z,100.00
2023-02-09T21:49:16.281Z,100.00
2023-02-09T21:51:43.117Z,100.00
2023-02-09T21:54:14.417Z,100.00
2023-02-09T21:56:40.925Z,100.00
2023-02-09T21:59:07.660Z,100.00
2023-02-09T22:01:34.503Z,100.00
2023-02-09T22:04:01.384Z,100.00
2023-02-09T22:06:30.019Z,100.00
2023-02-09T22:08:56.639Z,100.00
2023-02-09T22:11:23.137Z,100.00
2023-02-09T22:13:49.664Z,100.00
2023-02-09T22:16:21.451Z,100.00
2023-02-09T22:18:48.284Z,100.00
2023-02-09T22:21:14.767Z,100.00
2023-02-09T22:23:41.253Z,100.00
2023-02-09T22:26:07.991Z,100.00
2023-02-09T22:28:36.512Z,100.00
2023-02-09T22:31:08.930Z,100.00
2023-02-09T22:33:35.978Z,100.00
2023-02-09T22:36:11.862Z,100.00
2023-02-09T22:38:38.756Z,100.00
2023-02-09T22:41:21.198Z,100.00
2023-02-09T22:44:02.308Z,100.00
2023-02-09T22:46:31.697Z,100.00
2023-02-09T22:49:00.796Z,100.00
2023-02-09T22:51:30.311Z,100.00
2023-02-09T22:53:58.058Z,100.00
2023-02-09T22:56:25.588Z,100.00
2023-02-09T22:58:56.275Z,100.00
2023-02-09T23:01:23.211Z,100.00
2023-02-09T23:03:50.265Z,100.00
2023-02-09T23:06:19.617Z,100.00
2023-02-09T23:08:46.306Z,100.00
2023-02-09T23:11:17.098Z,100.00
2023-02-09T23:13:44.455Z,100.00
2023-02-09T23:16:16.300Z,100.00
2023-02-09T23:18:47.618Z,100.00
2023-02-09T23:21:15.735Z,100.00
2023-02-09T23:23:42.353Z,100.00
2023-02-09T23:26:09.261Z,100.00
2023-02-09T23:28:35.779Z,100.00
2023-02-09T23:31:06.273Z,100.00
2023-02-09T23:33:34.296Z,100.00
2023-02-09T23:36:09.612Z,100.00
2023-02-09T23:38:36.018Z,100.00
2023-02-09T23:41:14.833Z,100.00
2023-02-09T23:43:41.750Z,100.00
2023-02-09T23:46:12.046Z,100.00
2023-02-09T23:48:38.666Z,100.00
2023-02-09T23:51:11.756Z,100.00
2023-02-09T23:53:38.231Z,100.00
2023-02-09T23:56:05.461Z,100.00
2023-02-09T23:58:38.351Z,100.00
